createdAt,value
2019-03-29T00:00:29.116Z,8.90
2019-03-29T00:03:00.208Z,8.90
2019-03-29T00:05:31.259Z,8.80
2019-03-29T00:08:02.487Z,8.70
2019-03-29T00:10:33.523Z,8.60
2019-03-29T00:13:04.612Z,8.40
2019-03-29T00:15:35.707Z,8.20
2019-03-29T00:18:06.996Z,8.10
2019-03-29T00:20:38.040Z,7.90
2019-03-29T00:23:09.219Z,7.80
2019-03-29T00:25:40.387Z,7.80
2019-03-29T00:28:11.606Z,7.70
2019-03-29T00:30:42.691Z,7.70
2019-03-29T00:33:13.715Z,7.70
2019-03-29T00:35:44.793Z,7.70
2019-03-29T00:38:15.960Z,7.80
2019-03-29T00:40:47.191Z,7.80
2019-03-29T00:43:18.343Z,7.70
2019-03-29T00:45:49.400Z,7.60
2019-03-29T00:48:21.221Z,7.50
2019-03-29T00:50:53.053Z,7.50
2019-03-29T00:53:24.267Z,7.50
2019-03-29T00:55:55.557Z,7.50
2019-03-29T00:58:26.631Z,7.40
2019-03-29T01:00:57.738Z,7.40
2019-03-29T01:03:28.824Z,7.30
2019-03-29T01:05:59.900Z,7.30
2019-03-29T01:08:31.143Z,7.20
2019-03-29T01:11:02.283Z,7.20
2019-03-29T01:13:33.465Z,7.00
2019-03-29T01:16:04.655Z,7.00
2019-03-29T01:18:35.809Z,6.90
2019-03-29T01:21:07.162Z,6.90
2019-03-29T01:23:38.325Z,6.90
2019-03-29T01:26:09.617Z,7.00
2019-03-29T01:28:40.712Z,7.10
2019-03-29T01:31:11.809Z,7.20
2019-03-29T01:33:42.973Z,7.20
2019-03-29T01:36:14.204Z,7.30
2019-03-29T01:38:45.345Z,7.40
2019-03-29T01:41:16.548Z,7.50
2019-03-29T01:43:47.787Z,7.50
2019-03-29T01:46:18.941Z,7.60
2019-03-29T01:48:50.148Z,7.60
2019-03-29T01:51:21.304Z,7.70
2019-03-29T01:53:52.634Z,7.70
2019-03-29T01:56:23.887Z,7.80
2019-03-29T01:58:55.170Z,7.90
2019-03-29T02:01:26.335Z,7.90
2019-03-29T02:03:57.534Z,8.00
2019-03-29T02:06:28.678Z,8.00
2019-03-29T02:08:59.932Z,8.10
2019-03-29T02:11:31.101Z,8.10
2019-03-29T02:14:02.343Z,8.10
2019-03-29T02:16:33.523Z,8.10
2019-03-29T02:19:05.279Z,8.10
2019-03-29T02:21:37.065Z,8.10
2019-03-29T02:24:08.213Z,8.00
2019-03-29T02:26:39.225Z,7.90
2019-03-29T02:29:11.060Z,7.80
2019-03-29T02:31:42.857Z,7.80
2019-03-29T02:34:15.708Z,7.80
2019-03-29T02:36:46.813Z,7.90
2019-03-29T02:39:24.228Z,7.80
2019-03-29T02:41:55.271Z,7.80
2019-03-29T02:44:26.401Z,7.70
2019-03-29T02:46:57.522Z,7.60
2019-03-29T02:49:28.631Z,7.60
2019-03-29T02:51:59.820Z,7.50
2019-03-29T02:54:31.106Z,7.50
2019-03-29T02:57:02.686Z,7.40
2019-03-29T02:59:33.881Z,7.40
2019-03-29T03:02:05.121Z,7.40
2019-03-29T03:04:36.258Z,7.30
2019-03-29T03:07:07.483Z,7.30
2019-03-29T03:09:38.464Z,7.20
2019-03-29T03:12:09.582Z,7.30
2019-03-29T03:14:40.717Z,7.20
2019-03-29T03:17:11.911Z,7.10
2019-03-29T03:19:43.056Z,7.00
2019-03-29T03:22:14.280Z,6.90
2019-03-29T03:24:45.435Z,6.80
2019-03-29T03:27:16.661Z,6.80
2019-03-29T03:29:48.541Z,6.80
2019-03-29T03:32:19.865Z,6.70
2019-03-29T03:34:51.040Z,6.70
2019-03-29T03:37:22.232Z,6.60
2019-03-29T03:39:53.479Z,6.50
2019-03-29T03:42:24.763Z,6.50
2019-03-29T03:44:55.916Z,6.50
2019-03-29T03:47:27.042Z,6.40
2019-03-29T03:50:00.956Z,6.40
2019-03-29T03:52:31.332Z,6.40
2019-03-29T03:55:02.603Z,6.30
2019-03-29T03:57:35.868Z,6.20
2019-03-29T04:00:09.107Z,6.20
2019-03-29T04:02:40.447Z,6.20
2019-03-29T04:05:11.808Z,6.20
2019-03-29T04:07:42.872Z,6.10
2019-03-29T04:10:14.131Z,6.10
2019-03-29T04:12:45.127Z,6.10
2019-03-29T04:15:16.392Z,6.10
2019-03-29T04:17:47.549Z,6.10
2019-03-29T04:20:18.634Z,6.10
2019-03-29T04:22:49.825Z,6.00
2019-03-29T04:25:20.924Z,6.10
2019-03-29T04:27:51.950Z,6.00
2019-03-29T04:30:23.039Z,6.00
2019-03-29T04:32:54.191Z,6.00
2019-03-29T04:35:25.353Z,6.00
2019-03-29T04:37:56.419Z,6.00
2019-03-29T04:40:27.562Z,5.90
2019-03-29T04:42:58.935Z,5.90
2019-03-29T04:45:30.145Z,5.90
2019-03-29T04:48:01.370Z,5.90
2019-03-29T04:50:32.742Z,5.90
2019-03-29T04:53:03.880Z,5.80
2019-03-29T04:55:35.507Z,5.80
2019-03-29T04:58:06.900Z,5.70
2019-03-29T05:00:38.037Z,5.70
2019-03-29T05:03:09.347Z,5.70
2019-03-29T05:05:40.564Z,5.70
2019-03-29T05:08:11.649Z,5.60
2019-03-29T05:10:42.807Z,5.60
2019-03-29T05:13:13.968Z,5.50
2019-03-29T05:15:45.168Z,5.40
2019-03-29T05:18:16.378Z,5.40
2019-03-29T05:20:47.625Z,5.30
2019-03-29T05:23:18.667Z,5.30
2019-03-29T05:25:49.764Z,5.30
2019-03-29T05:28:20.826Z,5.20
2019-03-29T05:30:51.998Z,5.20
2019-03-29T05:33:23.244Z,5.20
2019-03-29T05:35:54.448Z,5.10
2019-03-29T05:38:25.439Z,5.10
2019-03-29T05:40:56.735Z,5.20
2019-03-29T05:43:27.840Z,5.20
2019-03-29T05:45:59.065Z,5.20
2019-03-29T05:48:30.095Z,5.20
2019-03-29T05:51:01.246Z,5.30
2019-03-29T05:53:32.326Z,5.30
2019-03-29T05:56:04.120Z,5.40
2019-03-29T05:58:35.131Z,5.40
2019-03-29T06:01:06.507Z,5.60
2019-03-29T06:03:37.765Z,5.60
2019-03-29T06:06:08.881Z,5.70
2019-03-29T06:08:39.998Z,5.80
2019-03-29T06:11:11.086Z,5.90
2019-03-29T06:13:42.147Z,6.00
2019-03-29T06:16:13.324Z,6.10
2019-03-29T06:18:44.411Z,6.10
2019-03-29T06:21:15.648Z,6.30
2019-03-29T06:23:46.700Z,6.40
2019-03-29T06:26:17.952Z,6.60
2019-03-29T06:28:48.995Z,6.70
2019-03-29T06:31:20.311Z,6.80
2019-03-29T06:33:51.493Z,6.80
2019-03-29T06:36:25.765Z,6.90
2019-03-29T06:38:59.089Z,7.10
2019-03-29T06:41:30.259Z,7.20
2019-03-29T06:44:01.383Z,7.40
2019-03-29T06:46:32.566Z,7.50
2019-03-29T06:49:03.672Z,7.60
2019-03-29T06:51:34.915Z,7.70
2019-03-29T06:54:06.102Z,7.80
2019-03-29T06:56:37.193Z,7.90
2019-03-29T06:59:08.310Z,8.10
2019-03-29T07:01:39.501Z,8.20
2019-03-29T07:04:10.629Z,8.30
2019-03-29T07:06:41.711Z,8.40
2019-03-29T07:09:12.836Z,8.60
2019-03-29T07:11:44.093Z,8.60
2019-03-29T07:14:15.229Z,8.70
2019-03-29T07:16:46.362Z,8.70
2019-03-29T07:19:17.489Z,8.80
2019-03-29T07:21:48.588Z,8.90
2019-03-29T07:24:19.542Z,9.00
2019-03-29T07:26:50.715Z,9.10
2019-03-29T07:29:21.867Z,9.10
2019-03-29T07:31:53.353Z,9.20
2019-03-29T07:34:25.549Z,9.20
2019-03-29T07:36:56.636Z,9.20
2019-03-29T07:39:27.659Z,9.30
2019-03-29T07:41:58.975Z,9.40
2019-03-29T07:44:30.035Z,9.50
2019-03-29T07:47:01.359Z,9.60
2019-03-29T07:49:32.401Z,9.70
2019-03-29T07:52:03.509Z,9.80
2019-03-29T07:54:34.778Z,9.80
2019-03-29T07:57:05.992Z,9.90
2019-03-29T07:59:37.493Z,10.00
2019-03-29T08:02:08.752Z,10.10
2019-03-29T08:04:40.065Z,10.20
2019-03-29T08:07:11.102Z,10.30
2019-03-29T08:09:42.245Z,10.40
2019-03-29T08:12:13.416Z,10.50
2019-03-29T08:14:44.447Z,10.50
2019-03-29T08:17:15.591Z,10.60
2019-03-29T08:19:46.567Z,10.70
2019-03-29T08:22:17.659Z,10.80
2019-03-29T08:24:48.965Z,10.90
2019-03-29T08:27:20.229Z,11.00
2019-03-29T08:29:51.435Z,11.10
2019-03-29T08:32:22.667Z,11.10
2019-03-29T08:34:53.809Z,11.20
2019-03-29T08:37:24.889Z,11.20
2019-03-29T08:39:56.629Z,11.20
2019-03-29T08:42:28.095Z,11.30
2019-03-29T08:44:59.015Z,11.40
2019-03-29T08:47:30.229Z,11.40
2019-03-29T08:50:01.281Z,11.50
2019-03-29T08:52:32.441Z,11.50
2019-03-29T08:55:03.710Z,11.40
2019-03-29T08:57:34.854Z,11.40
2019-03-29T09:00:07.569Z,11.30
2019-03-29T09:02:38.866Z,11.50
2019-03-29T09:05:10.165Z,11.50
2019-03-29T09:07:44.887Z,11.60
2019-03-29T09:10:25.907Z,11.80
2019-03-29T09:12:57.128Z,12.00
2019-03-29T09:15:28.298Z,12.10
2019-03-29T09:18:00.100Z,12.20
2019-03-29T09:20:34.284Z,12.30
2019-03-29T09:23:04.475Z,12.50
2019-03-29T09:25:35.687Z,12.70
2019-03-29T09:28:06.986Z,12.70
2019-03-29T09:30:38.106Z,12.70
2019-03-29T09:33:09.286Z,12.80
2019-03-29T09:35:42.812Z,13.00
2019-03-29T09:38:13.401Z,13.30
2019-03-29T09:40:53.527Z,13.50
2019-03-29T09:43:17.398Z,13.60
2019-03-29T09:45:48.507Z,13.40
2019-03-29T09:48:19.801Z,13.40
2019-03-29T09:50:51.192Z,13.40
2019-03-29T09:53:22.382Z,13.40
2019-03-29T09:55:53.675Z,13.50
2019-03-29T09:58:24.905Z,13.40
2019-03-29T10:00:56.017Z,13.30
2019-03-29T10:03:27.117Z,13.50
2019-03-29T10:05:58.221Z,13.60
2019-03-29T10:08:29.397Z,13.70
2019-03-29T10:11:00.415Z,13.90
2019-03-29T10:13:31.598Z,14.00
2019-03-29T10:16:02.696Z,14.00
2019-03-29T10:18:33.761Z,14.10
2019-03-29T10:21:05.041Z,14.20
2019-03-29T10:23:36.198Z,14.20
2019-03-29T10:26:07.466Z,14.20
2019-03-29T10:28:38.721Z,14.30
2019-03-29T10:31:09.841Z,14.40
2019-03-29T10:33:40.926Z,14.50
2019-03-29T10:36:11.962Z,14.70
2019-03-29T10:38:43.061Z,14.90
2019-03-29T10:41:14.114Z,15.10
2019-03-29T10:43:45.244Z,15.20
2019-03-29T10:46:16.351Z,15.30
2019-03-29T10:48:47.509Z,15.30
2019-03-29T10:51:18.473Z,15.20
2019-03-29T10:53:49.563Z,15.30
2019-03-29T10:56:33.426Z,15.30
2019-03-29T10:58:53.587Z,15.30
2019-03-29T11:01:24.975Z,15.20
2019-03-29T11:03:56.107Z,15.10
2019-03-29T11:06:27.270Z,14.90
2019-03-29T11:08:58.459Z,14.90
2019-03-29T11:11:29.574Z,14.80
2019-03-29T11:14:00.664Z,14.90
2019-03-29T11:16:31.965Z,15.10
2019-03-29T11:19:03.188Z,15.10
2019-03-29T11:21:34.139Z,15.00
2019-03-29T11:24:08.873Z,15.00
2019-03-29T11:26:38.204Z,15.10
2019-03-29T11:29:09.428Z,15.10
2019-03-29T11:31:40.683Z,15.00
2019-03-29T11:34:11.789Z,14.90
2019-03-29T11:36:42.914Z,14.80
2019-03-29T11:39:14.352Z,14.70
2019-03-29T11:41:45.505Z,14.80
2019-03-29T11:44:16.793Z,15.00
2019-03-29T11:46:47.853Z,15.20
2019-03-29T11:49:19.366Z,15.30
2019-03-29T11:51:50.564Z,15.50
2019-03-29T11:54:21.813Z,15.70
2019-03-29T11:56:53.031Z,15.80
2019-03-29T11:59:24.023Z,16.00
2019-03-29T12:01:55.140Z,16.20
2019-03-29T12:04:26.430Z,16.30
2019-03-29T12:06:57.535Z,16.40
2019-03-29T12:09:28.835Z,16.50
2019-03-29T12:11:59.988Z,16.60
2019-03-29T12:14:31.070Z,16.60
2019-03-29T12:17:02.274Z,16.60
2019-03-29T12:19:33.480Z,16.70
2019-03-29T12:22:04.617Z,16.70
2019-03-29T12:24:35.878Z,16.60
2019-03-29T12:27:07.030Z,16.50
2019-03-29T12:29:38.182Z,16.40
2019-03-29T12:32:09.220Z,16.40
2019-03-29T12:34:40.369Z,16.40
2019-03-29T12:37:11.502Z,16.50
2019-03-29T12:39:42.594Z,16.50
2019-03-29T12:42:13.821Z,16.50
2019-03-29T12:44:44.886Z,16.60
2019-03-29T12:47:16.023Z,16.50
2019-03-29T12:49:47.151Z,16.50
2019-03-29T12:52:18.218Z,16.40
2019-03-29T12:54:49.378Z,16.40
2019-03-29T12:57:20.501Z,16.30
2019-03-29T12:59:51.751Z,16.40
2019-03-29T13:02:23.066Z,16.50
2019-03-29T13:04:54.149Z,16.60
2019-03-29T13:07:25.570Z,16.70
2019-03-29T13:09:56.729Z,16.70
2019-03-29T13:12:27.911Z,16.70
2019-03-29T13:14:59.009Z,16.60
2019-03-29T13:17:30.128Z,16.70
2019-03-29T13:20:01.267Z,16.70
2019-03-29T13:22:34.668Z,16.70
2019-03-29T13:25:07.551Z,16.80
2019-03-29T13:27:38.792Z,16.80
2019-03-29T13:30:11.134Z,16.60
2019-03-29T13:32:42.339Z,16.70
2019-03-29T13:35:13.761Z,16.80
2019-03-29T13:37:44.785Z,16.90
2019-03-29T13:40:16.117Z,17.00
2019-03-29T13:42:47.319Z,17.00
2019-03-29T13:45:18.565Z,17.20
2019-03-29T13:47:49.731Z,17.20
2019-03-29T13:50:20.938Z,17.10
2019-03-29T13:52:52.048Z,16.90
2019-03-29T13:55:23.273Z,16.80
2019-03-29T13:57:54.445Z,16.80
2019-03-29T14:00:25.717Z,16.90
2019-03-29T14:02:56.811Z,16.90
2019-03-29T14:05:27.798Z,16.90
2019-03-29T14:07:58.999Z,16.90
2019-03-29T14:10:30.115Z,16.80
2019-03-29T14:13:01.162Z,16.80
2019-03-29T14:15:32.303Z,16.80
2019-03-29T14:18:03.415Z,16.80
2019-03-29T14:20:35.650Z,16.90
2019-03-29T14:23:07.293Z,16.90
2019-03-29T14:25:38.459Z,16.90
2019-03-29T14:28:09.690Z,17.00
2019-03-29T14:30:40.917Z,17.00
2019-03-29T14:33:12.103Z,17.00
2019-03-29T14:35:43.337Z,16.90
2019-03-29T14:38:14.488Z,16.90
2019-03-29T14:40:45.585Z,16.80
2019-03-29T14:43:16.790Z,16.90
2019-03-29T14:45:47.956Z,16.90
2019-03-29T14:48:19.039Z,16.90
2019-03-29T14:50:50.263Z,16.80
2019-03-29T14:53:21.439Z,16.80
2019-03-29T14:55:52.602Z,16.80
2019-03-29T14:58:23.655Z,16.80
2019-03-29T15:00:54.778Z,16.90
2019-03-29T15:03:25.972Z,16.90
2019-03-29T15:05:57.274Z,16.90
2019-03-29T15:08:28.354Z,16.90
2019-03-29T15:10:59.569Z,16.90
2019-03-29T15:13:30.612Z,16.90
2019-03-29T15:16:01.778Z,16.90
2019-03-29T15:18:32.793Z,16.90
2019-03-29T15:21:03.784Z,16.90
2019-03-29T15:23:34.997Z,16.90
2019-03-29T15:26:06.308Z,16.80
2019-03-29T15:28:37.717Z,16.90
2019-03-29T15:31:08.899Z,16.80
2019-03-29T15:33:39.940Z,16.90
2019-03-29T15:36:10.895Z,16.90
2019-03-29T15:38:42.180Z,16.80
2019-03-29T15:41:13.290Z,16.70
2019-03-29T15:43:44.565Z,16.70
2019-03-29T15:46:15.760Z,16.70
2019-03-29T15:48:47.027Z,16.70
2019-03-29T15:51:18.174Z,16.80
2019-03-29T15:53:49.331Z,16.70
2019-03-29T15:56:20.406Z,16.70
2019-03-29T15:58:51.661Z,16.70
2019-03-29T16:01:22.699Z,16.70
2019-03-29T16:03:54.096Z,16.60
2019-03-29T16:06:25.258Z,16.60
2019-03-29T16:08:56.416Z,16.50
2019-03-29T16:11:27.459Z,16.40
2019-03-29T16:13:58.555Z,16.40
2019-03-29T16:16:32.677Z,16.30
2019-03-29T16:19:03.851Z,16.30
2019-03-29T16:21:35.043Z,16.30
2019-03-29T16:24:06.619Z,16.30
2019-03-29T16:26:37.754Z,16.20
2019-03-29T16:29:08.866Z,16.10
2019-03-29T16:31:40.090Z,16.10
2019-03-29T16:34:11.426Z,16.10
2019-03-29T16:36:42.536Z,16.10
2019-03-29T16:39:13.804Z,16.00
2019-03-29T16:41:44.874Z,16.00
2019-03-29T16:44:15.862Z,15.90
2019-03-29T16:46:47.078Z,15.90
2019-03-29T16:49:18.256Z,15.80
2019-03-29T16:51:49.414Z,15.80
2019-03-29T16:54:20.415Z,15.70
2019-03-29T16:56:51.619Z,15.70
2019-03-29T16:59:22.728Z,15.50
2019-03-29T17:01:53.898Z,15.50
2019-03-29T17:04:24.951Z,15.40
2019-03-29T17:06:56.081Z,15.40
2019-03-29T17:09:27.236Z,15.30
2019-03-29T17:11:59.368Z,15.20
2019-03-29T17:14:30.419Z,15.00
2019-03-29T17:17:01.351Z,15.00
2019-03-29T17:19:32.411Z,14.80
2019-03-29T17:22:03.483Z,14.80
2019-03-29T17:24:34.556Z,14.70
2019-03-29T17:27:05.701Z,14.60
2019-03-29T17:29:37.003Z,14.50
2019-03-29T17:32:08.190Z,14.40
2019-03-29T17:34:39.324Z,14.30
2019-03-29T17:37:10.447Z,14.20
2019-03-29T17:39:42.589Z,14.10
2019-03-29T17:42:13.816Z,14.00
2019-03-29T17:44:45.014Z,13.80
2019-03-29T17:47:16.197Z,13.70
2019-03-29T17:49:47.460Z,13.60
2019-03-29T17:52:18.501Z,13.50
2019-03-29T17:54:49.555Z,13.40
2019-03-29T17:57:20.607Z,13.20
2019-03-29T17:59:51.795Z,13.10
2019-03-29T18:02:23.279Z,13.00
2019-03-29T18:04:54.517Z,12.80
2019-03-29T18:07:25.624Z,12.70
2019-03-29T18:09:56.883Z,12.60
2019-03-29T18:12:27.952Z,12.50
2019-03-29T18:14:59.062Z,12.50
2019-03-29T18:17:30.369Z,12.40
2019-03-29T18:20:01.622Z,12.40
2019-03-29T18:22:32.600Z,12.30
2019-03-29T18:25:03.853Z,12.20
2019-03-29T18:27:34.968Z,12.10
2019-03-29T18:30:08.224Z,12.10
2019-03-29T18:32:39.438Z,12.00
2019-03-29T18:35:10.979Z,11.80
2019-03-29T18:37:42.736Z,11.80
2019-03-29T18:40:26.452Z,11.70
2019-03-29T18:42:57.895Z,11.60
2019-03-29T18:45:29.203Z,11.50
2019-03-29T18:48:00.365Z,11.50
2019-03-29T18:50:31.506Z,11.50
2019-03-29T18:53:02.688Z,11.40
2019-03-29T18:55:33.921Z,11.40
2019-03-29T18:58:05.982Z,11.30
2019-03-29T19:00:38.049Z,11.30
2019-03-29T19:03:11.915Z,11.20
2019-03-29T19:05:42.266Z,11.10
2019-03-29T19:08:13.411Z,11.00
2019-03-29T19:10:44.734Z,10.90
2019-03-29T19:13:19.036Z,10.90
2019-03-29T19:15:50.285Z,10.80
2019-03-29T19:18:21.374Z,10.80
2019-03-29T19:20:52.531Z,10.70
2019-03-29T19:23:23.883Z,10.60
2019-03-29T19:25:55.256Z,10.60
2019-03-29T19:28:26.444Z,10.50
2019-03-29T19:30:57.705Z,10.40
2019-03-29T19:33:28.932Z,10.30
2019-03-29T19:36:00.062Z,10.20
2019-03-29T19:38:31.184Z,10.20
2019-03-29T19:41:02.404Z,10.10
2019-03-29T19:43:33.600Z,10.10
2019-03-29T19:46:04.994Z,10.00
2019-03-29T19:48:36.244Z,10.00
2019-03-29T19:51:07.414Z,9.90
2019-03-29T19:53:38.677Z,9.80
2019-03-29T19:56:09.707Z,9.70
2019-03-29T19:58:40.985Z,9.60
2019-03-29T20:01:12.089Z,9.60
2019-03-29T20:03:43.199Z,9.50
2019-03-29T20:06:14.405Z,9.50
2019-03-29T20:08:45.417Z,9.40
2019-03-29T20:11:16.716Z,9.30
2019-03-29T20:13:47.852Z,9.30
2019-03-29T20:16:19.055Z,9.40
2019-03-29T20:18:50.179Z,9.50
2019-03-29T20:21:21.395Z,9.50
2019-03-29T20:23:52.518Z,9.50
2019-03-29T20:26:23.722Z,9.50
2019-03-29T20:28:54.699Z,9.40
2019-03-29T20:31:26.026Z,9.40
2019-03-29T20:33:57.122Z,9.30
2019-03-29T20:36:28.272Z,9.20
2019-03-29T20:38:59.338Z,9.20
2019-03-29T20:41:30.753Z,9.10
2019-03-29T20:44:01.885Z,9.10
2019-03-29T20:46:33.256Z,9.00
2019-03-29T20:49:04.320Z,8.90
2019-03-29T20:51:35.480Z,8.90
2019-03-29T20:54:06.664Z,8.90
2019-03-29T20:56:37.758Z,8.90
2019-03-29T20:59:09.158Z,9.00
2019-03-29T21:03:20.955Z,9.00
2019-03-29T21:05:52.202Z,9.10
2019-03-29T21:08:23.454Z,9.10
2019-03-29T21:10:56.421Z,9.00
2019-03-29T21:13:27.345Z,9.00
2019-03-29T21:15:58.375Z,9.00
2019-03-29T21:18:29.476Z,8.90
2019-03-29T21:21:00.567Z,8.90
2019-03-29T21:23:31.943Z,8.90
2019-03-29T21:26:02.996Z,8.80
2019-03-29T21:28:35.125Z,8.80
2019-03-29T21:31:06.355Z,8.80
2019-03-29T21:33:40.561Z,8.70
2019-03-29T21:36:10.680Z,8.80
2019-03-29T21:38:41.895Z,8.70
2019-03-29T21:41:13.255Z,8.70
2019-03-29T21:43:44.223Z,8.70
2019-03-29T21:46:15.655Z,8.70
2019-03-29T21:48:46.709Z,8.70
2019-03-29T21:51:17.954Z,8.50
2019-03-29T21:53:49.268Z,8.40
2019-03-29T21:56:20.373Z,8.30
2019-03-29T21:58:51.628Z,8.10
2019-03-29T22:01:22.914Z,8.00
2019-03-29T22:03:54.037Z,8.00
2019-03-29T22:06:25.121Z,7.90
2019-03-29T22:08:56.272Z,7.80
2019-03-29T22:11:27.581Z,7.80
2019-03-29T22:13:58.714Z,7.70
2019-03-29T22:16:29.779Z,7.60
2019-03-29T22:19:01.001Z,7.50
2019-03-29T22:21:32.228Z,7.40
2019-03-29T22:24:03.336Z,7.40
2019-03-29T22:26:34.515Z,7.20
2019-03-29T22:29:05.784Z,7.10
2019-03-29T22:31:37.032Z,7.00
2019-03-29T22:34:08.266Z,7.00
2019-03-29T22:36:39.384Z,6.90
2019-03-29T22:39:10.650Z,6.80
2019-03-29T22:41:41.743Z,6.70
2019-03-29T22:44:12.710Z,6.70
2019-03-29T22:46:43.868Z,6.70
2019-03-29T22:49:14.893Z,6.60
2019-03-29T22:51:46.022Z,6.60
2019-03-29T22:54:17.241Z,6.50
2019-03-29T22:56:48.333Z,6.60
2019-03-29T22:59:19.396Z,6.60
2019-03-29T23:01:50.843Z,6.50
2019-03-29T23:04:21.873Z,6.60
2019-03-29T23:06:53.074Z,6.50
2019-03-29T23:09:24.167Z,6.50
2019-03-29T23:11:55.217Z,6.60
2019-03-29T23:14:26.357Z,6.70
2019-03-29T23:16:57.638Z,6.80
2019-03-29T23:19:28.827Z,6.80
2019-03-29T23:21:59.949Z,6.80
2019-03-29T23:24:31.020Z,6.80
2019-03-29T23:27:02.583Z,6.80
2019-03-29T23:29:33.727Z,6.70
2019-03-29T23:32:05.031Z,6.60
2019-03-29T23:34:36.221Z,6.50
2019-03-29T23:37:07.278Z,6.40
2019-03-29T23:39:38.902Z,6.40
2019-03-29T23:42:10.171Z,6.40
2019-03-29T23:44:41.384Z,6.40
2019-03-29T23:47:12.557Z,6.30
2019-03-29T23:49:43.739Z,6.30
2019-03-29T23:52:14.890Z,6.30
2019-03-29T23:54:46.036Z,6.20
2019-03-29T23:57:17.268Z,6.20
2019-03-29T23:59:48.459Z,6.20
